sensor_id;sensor_type;location;lat;lon;timestamp;temperature;humidity
23411;DHT22;11878;51.774;7.220;2023-03-14T00:04:21;11.70;99.90
23411;DHT22;11878;51.774;7.220;2023-03-14T00:07:23;11.70;99.90
23411;DHT22;11878;51.774;7.220;2023-03-14T00:10:26;11.70;99.90
23411;DHT22;11878;51.774;7.220;2023-03-14T00:13:27;11.70;99.90
23411;DHT22;11878;51.774;7.220;2023-03-14T00:16:29;12.30;99.90
23411;DHT22;11878;51.774;7.220;2023-03-14T00:19:31;11.60;99.90
23411;DHT22;11878;51.774;7.220;2023-03-14T00:22:32;11.70;99.90
23411;DHT22;11878;51.774;7.220;2023-03-14T00:25:34;11.60;99.90
23411;DHT22;11878;51.774;7.220;2023-03-14T00:28:36;11.60;99.90
23411;DHT22;11878;51.774;7.220;2023-03-14T00:31:38;11.50;99.90
23411;DHT22;11878;51.774;7.220;2023-03-14T00:34:43;11.50;99.90
23411;DHT22;11878;51.774;7.220;2023-03-14T00:37:45;11.50;99.90
23411;DHT22;11878;51.774;7.220;2023-03-14T00:40:46;11.40;99.90
23411;DHT22;11878;51.774;7.220;2023-03-14T00:43:49;11.30;99.90
23411;DHT22;11878;51.774;7.220;2023-03-14T00:46:51;11.30;99.90
23411;DHT22;11878;51.774;7.220;2023-03-14T00:49:53;11.30;99.90
23411;DHT22;11878;51.774;7.220;2023-03-14T00:52:54;11.30;99.90
23411;DHT22;11878;51.774;7.220;2023-03-14T00:55:56;11.30;99.90
23411;DHT22;11878;51.774;7.220;2023-03-14T01:02:29;11.40;99.90
23411;DHT22;11878;51.774;7.220;2023-03-14T01:05:31;11.40;99.90
23411;DHT22;11878;51.774;7.220;2023-03-14T01:08:33;11.50;99.90
23411;DHT22;11878;51.774;7.220;2023-03-14T01:11:35;11.50;99.90
23411;DHT22;11878;51.774;7.220;2023-03-14T01:14:37;11.60;99.90
23411;DHT22;11878;51.774;7.220;2023-03-14T01:17:39;11.60;99.90
23411;DHT22;11878;51.774;7.220;2023-03-14T01:20:41;11.50;99.90
23411;DHT22;11878;51.774;7.220;2023-03-14T01:23:43;11.40;99.90
23411;DHT22;11878;51.774;7.220;2023-03-14T01:26:44;11.20;99.90
23411;DHT22;11878;51.774;7.220;2023-03-14T01:37:03;10.60;99.90
23411;DHT22;11878;51.774;7.220;2023-03-14T01:40:06;10.50;99.90
23411;DHT22;11878;51.774;7.220;2023-03-14T01:43:19;10.40;99.90
23411;DHT22;11878;51.774;7.220;2023-03-14T01:46:42;10.40;99.90
23411;DHT22;11878;51.774;7.220;2023-03-14T01:49:50;10.40;99.90
23411;DHT22;11878;51.774;7.220;2023-03-14T01:52:53;10.40;99.90
23411;DHT22;11878;51.774;7.220;2023-03-14T02:03:16;10.30;99.90
23411;DHT22;11878;51.774;7.220;2023-03-14T02:06:22;10.30;99.90
23411;DHT22;11878;51.774;7.220;2023-03-14T02:09:26;10.30;99.90
23411;DHT22;11878;51.774;7.220;2023-03-14T02:12:28;10.30;99.90
23411;DHT22;11878;51.774;7.220;2023-03-14T02:15:49;10.20;99.90
23411;DHT22;11878;51.774;7.220;2023-03-14T02:19:30;10.20;99.90
23411;DHT22;11878;51.774;7.220;2023-03-14T02:22:45;10.20;99.90
23411;DHT22;11878;51.774;7.220;2023-03-14T02:28:53;10.10;99.90
23411;DHT22;11878;51.774;7.220;2023-03-14T02:31:59;10.00;99.90
23411;DHT22;11878;51.774;7.220;2023-03-14T02:35:07;10.00;99.90
23411;DHT22;11878;51.774;7.220;2023-03-14T02:38:40;9.90;99.90
23411;DHT22;11878;51.774;7.220;2023-03-14T02:41:46;9.90;99.90
23411;DHT22;11878;51.774;7.220;2023-03-14T02:48:29;10.00;99.90
23411;DHT22;11878;51.774;7.220;2023-03-14T02:51:33;10.00;99.90
23411;DHT22;11878;51.774;7.220;2023-03-14T02:54:35;10.10;99.90
23411;DHT22;11878;51.774;7.220;2023-03-14T02:57:37;10.00;99.90
23411;DHT22;11878;51.774;7.220;2023-03-14T03:00:41;10.00;99.90
23411;DHT22;11878;51.774;7.220;2023-03-14T03:03:45;9.80;99.90
23411;DHT22;11878;51.774;7.220;2023-03-14T03:06:47;9.90;99.90
23411;DHT22;11878;51.774;7.220;2023-03-14T03:09:50;9.90;99.90
23411;DHT22;11878;51.774;7.220;2023-03-14T03:12:52;10.80;99.90
23411;DHT22;11878;51.774;7.220;2023-03-14T03:15:58;10.00;99.90
23411;DHT22;11878;51.774;7.220;2023-03-14T03:19:00;10.00;99.90
23411;DHT22;11878;51.774;7.220;2023-03-14T03:22:02;10.10;99.90
23411;DHT22;11878;51.774;7.220;2023-03-14T03:25:06;10.20;99.90
23411;DHT22;11878;51.774;7.220;2023-03-14T03:28:08;10.10;99.90
23411;DHT22;11878;51.774;7.220;2023-03-14T03:35:29;10.20;99.90
23411;DHT22;11878;51.774;7.220;2023-03-14T03:38:32;11.10;99.90
23411;DHT22;11878;51.774;7.220;2023-03-14T03:41:36;11.00;99.90
23411;DHT22;11878;51.774;7.220;2023-03-14T03:44:38;11.70;99.90
23411;DHT22;11878;51.774;7.220;2023-03-14T03:47:40;10.20;99.90
23411;DHT22;11878;51.774;7.220;2023-03-14T04:01:17;10.80;99.90
23411;DHT22;11878;51.774;7.220;2023-03-14T04:04:23;10.20;99.90
23411;DHT22;11878;51.774;7.220;2023-03-14T04:07:25;10.20;99.90
23411;DHT22;11878;51.774;7.220;2023-03-14T04:10:27;10.10;99.90
23411;DHT22;11878;51.774;7.220;2023-03-14T04:13:44;10.20;99.90
23411;DHT22;11878;51.774;7.220;2023-03-14T04:16:46;10.20;99.90
23411;DHT22;11878;51.774;7.220;2023-03-14T04:19:54;10.10;99.90
23411;DHT22;11878;51.774;7.220;2023-03-14T04:23:02;11.90;99.90
23411;DHT22;11878;51.774;7.220;2023-03-14T04:26:04;10.30;99.90
23411;DHT22;11878;51.774;7.220;2023-03-14T04:29:07;10.50;99.90
23411;DHT22;11878;51.774;7.220;2023-03-14T04:32:09;11.40;99.90
23411;DHT22;11878;51.774;7.220;2023-03-14T04:35:13;10.30;99.90
23411;DHT22;11878;51.774;7.220;2023-03-14T04:38:15;10.90;99.90
23411;DHT22;11878;51.774;7.220;2023-03-14T04:41:19;11.90;99.90
23411;DHT22;11878;51.774;7.220;2023-03-14T04:44:22;10.50;99.90
23411;DHT22;11878;51.774;7.220;2023-03-14T04:47:27;11.10;99.90
23411;DHT22;11878;51.774;7.220;2023-03-14T04:50:32;11.00;99.90
23411;DHT22;11878;51.774;7.220;2023-03-14T04:53:34;10.30;99.90
23411;DHT22;11878;51.774;7.220;2023-03-14T04:56:44;11.00;99.90
23411;DHT22;11878;51.774;7.220;2023-03-14T04:59:46;10.20;99.90
23411;DHT22;11878;51.774;7.220;2023-03-14T05:03:08;10.60;99.90
23411;DHT22;11878;51.774;7.220;2023-03-14T05:06:32;10.10;99.90
23411;DHT22;11878;51.774;7.220;2023-03-14T05:10:08;10.10;99.90
23411;DHT22;11878;51.774;7.220;2023-03-14T05:13:39;10.10;99.90
23411;DHT22;11878;51.774;7.220;2023-03-14T05:16:58;10.60;99.90
23411;DHT22;11878;51.774;7.220;2023-03-14T05:20:12;10.00;99.90
23411;DHT22;11878;51.774;7.220;2023-03-14T05:23:34;10.30;99.90
23411;DHT22;11878;51.774;7.220;2023-03-14T05:27:02;10.10;99.90
23411;DHT22;11878;51.774;7.220;2023-03-14T05:30:12;9.80;99.90
23411;DHT22;11878;51.774;7.220;2023-03-14T05:33:21;9.60;99.90
23411;DHT22;11878;51.774;7.220;2023-03-14T05:36:42;9.60;99.90
23411;DHT22;11878;51.774;7.220;2023-03-14T05:40:07;9.50;99.90
23411;DHT22;11878;51.774;7.220;2023-03-14T05:43:25;9.40;99.90
23411;DHT22;11878;51.774;7.220;2023-03-14T05:46:41;9.40;99.90
23411;DHT22;11878;51.774;7.220;2023-03-14T05:50:09;9.50;99.90
23411;DHT22;11878;51.774;7.220;2023-03-14T05:53:50;9.40;99.90
23411;DHT22;11878;51.774;7.220;2023-03-14T05:57:11;9.50;99.90
23411;DHT22;11878;51.774;7.220;2023-03-14T06:00:48;9.30;99.90
23411;DHT22;11878;51.774;7.220;2023-03-14T06:04:11;9.20;99.90
23411;DHT22;11878;51.774;7.220;2023-03-14T06:07:14;10.20;99.90
23411;DHT22;11878;51.774;7.220;2023-03-14T06:10:18;10.20;99.90
23411;DHT22;11878;51.774;7.220;2023-03-14T06:13:21;10.40;99.90
23411;DHT22;11878;51.774;7.220;2023-03-14T06:16:23;9.20;99.90
23411;DHT22;11878;51.774;7.220;2023-03-14T06:19:30;9.10;99.90
23411;DHT22;11878;51.774;7.220;2023-03-14T06:22:46;9.10;99.90
23411;DHT22;11878;51.774;7.220;2023-03-14T06:25:49;10.10;99.90
23411;DHT22;11878;51.774;7.220;2023-03-14T06:28:51;9.10;99.90
23411;DHT22;11878;51.774;7.220;2023-03-14T06:31:58;9.20;99.90
23411;DHT22;11878;51.774;7.220;2023-03-14T06:35:01;9.20;99.90
23411;DHT22;11878;51.774;7.220;2023-03-14T06:38:21;9.20;99.90
23411;DHT22;11878;51.774;7.220;2023-03-14T06:41:29;9.20;99.90
23411;DHT22;11878;51.774;7.220;2023-03-14T06:44:34;9.20;99.90
23411;DHT22;11878;51.774;7.220;2023-03-14T06:47:36;9.20;99.90
23411;DHT22;11878;51.774;7.220;2023-03-14T06:50:40;9.20;99.90
23411;DHT22;11878;51.774;7.220;2023-03-14T06:53:42;10.00;99.90
23411;DHT22;11878;51.774;7.220;2023-03-14T06:56:45;9.20;99.90
23411;DHT22;11878;51.774;7.220;2023-03-14T06:59:48;9.90;99.90
23411;DHT22;11878;51.774;7.220;2023-03-14T07:02:50;9.20;99.90
23411;DHT22;11878;51.774;7.220;2023-03-14T07:06:04;9.20;99.90
23411;DHT22;11878;51.774;7.220;2023-03-14T07:09:07;9.10;99.90
23411;DHT22;11878;51.774;7.220;2023-03-14T07:12:16;10.40;99.90
23411;DHT22;11878;51.774;7.220;2023-03-14T07:15:18;9.30;99.90
23411;DHT22;11878;51.774;7.220;2023-03-14T07:18:25;10.30;99.90
23411;DHT22;11878;51.774;7.220;2023-03-14T07:21:27;10.80;99.90
23411;DHT22;11878;51.774;7.220;2023-03-14T07:24:29;9.40;99.90
23411;DHT22;11878;51.774;7.220;2023-03-14T07:27:31;9.50;99.90
23411;DHT22;11878;51.774;7.220;2023-03-14T07:30:33;10.70;99.90
23411;DHT22;11878;51.774;7.220;2023-03-14T07:33:37;10.70;99.90
23411;DHT22;11878;51.774;7.220;2023-03-14T07:36:40;9.70;99.90
23411;DHT22;11878;51.774;7.220;2023-03-14T07:39:42;11.10;99.90
23411;DHT22;11878;51.774;7.220;2023-03-14T07:42:51;10.00;99.90
23411;DHT22;11878;51.774;7.220;2023-03-14T07:46:14;9.90;99.90
23411;DHT22;11878;51.774;7.220;2023-03-14T07:49:16;10.00;99.90
23411;DHT22;11878;51.774;7.220;2023-03-14T07:52:20;11.10;99.90
23411;DHT22;11878;51.774;7.220;2023-03-14T07:55:39;9.90;99.90
23411;DHT22;11878;51.774;7.220;2023-03-14T07:58:57;9.60;99.90
23411;DHT22;11878;51.774;7.220;2023-03-14T08:05:30;9.80;99.90
23411;DHT22;11878;51.774;7.220;2023-03-14T08:08:32;9.90;99.90
23411;DHT22;11878;51.774;7.220;2023-03-14T08:11:34;10.70;99.90
23411;DHT22;11878;51.774;7.220;2023-03-14T08:14:36;10.10;99.90
23411;DHT22;11878;51.774;7.220;2023-03-14T08:17:37;9.60;99.90
23411;DHT22;11878;51.774;7.220;2023-03-14T08:20:39;11.30;99.90
23411;DHT22;11878;51.774;7.220;2023-03-14T08:23:43;11.00;99.90
23411;DHT22;11878;51.774;7.220;2023-03-14T08:26:44;10.10;99.90
23411;DHT22;11878;51.774;7.220;2023-03-14T08:29:49;11.50;99.90
23411;DHT22;11878;51.774;7.220;2023-03-14T08:32:51;11.80;99.90
23411;DHT22;11878;51.774;7.220;2023-03-14T08:35:58;10.40;99.90
23411;DHT22;11878;51.774;7.220;2023-03-14T08:39:01;10.50;99.90
23411;DHT22;11878;51.774;7.220;2023-03-14T08:42:05;12.00;99.90
23411;DHT22;11878;51.774;7.220;2023-03-14T08:45:14;11.50;99.90
23411;DHT22;11878;51.774;7.220;2023-03-14T08:48:18;9.70;99.90
23411;DHT22;11878;51.774;7.220;2023-03-14T08:51:21;11.10;99.90
23411;DHT22;11878;51.774;7.220;2023-03-14T08:54:22;11.30;99.90
23411;DHT22;11878;51.774;7.220;2023-03-14T08:57:25;12.20;99.90
23411;DHT22;11878;51.774;7.220;2023-03-14T09:00:32;11.00;99.90
23411;DHT22;11878;51.774;7.220;2023-03-14T09:03:34;10.50;99.90
23411;DHT22;11878;51.774;7.220;2023-03-14T09:06:36;11.00;99.90
23411;DHT22;11878;51.774;7.220;2023-03-14T09:09:38;11.40;99.90
23411;DHT22;11878;51.774;7.220;2023-03-14T09:12:40;10.80;99.90
23411;DHT22;11878;51.774;7.220;2023-03-14T09:15:42;10.90;99.90
23411;DHT22;11878;51.774;7.220;2023-03-14T09:18:44;10.80;99.90
23411;DHT22;11878;51.774;7.220;2023-03-14T09:21:46;12.30;99.90
23411;DHT22;11878;51.774;7.220;2023-03-14T09:24:48;11.80;99.90
23411;DHT22;11878;51.774;7.220;2023-03-14T09:27:50;9.90;99.90
23411;DHT22;11878;51.774;7.220;2023-03-14T09:30:51;9.80;99.90
23411;DHT22;11878;51.774;7.220;2023-03-14T09:33:57;10.70;99.90
23411;DHT22;11878;51.774;7.220;2023-03-14T09:36:59;9.50;99.90
23411;DHT22;11878;51.774;7.220;2023-03-14T09:40:03;9.20;99.90
23411;DHT22;11878;51.774;7.220;2023-03-14T09:43:14;9.00;99.90
23411;DHT22;11878;51.774;7.220;2023-03-14T09:46:18;10.00;99.90
23411;DHT22;11878;51.774;7.220;2023-03-14T09:49:30;9.30;99.90
23411;DHT22;11878;51.774;7.220;2023-03-14T09:52:50;8.60;99.90
23411;DHT22;11878;51.774;7.220;2023-03-14T09:55:54;8.40;99.90
23411;DHT22;11878;51.774;7.220;2023-03-14T09:59:02;8.50;99.90
23411;DHT22;11878;51.774;7.220;2023-03-14T10:02:23;8.20;99.90
23411;DHT22;11878;51.774;7.220;2023-03-14T10:05:25;8.30;99.90
23411;DHT22;11878;51.774;7.220;2023-03-14T10:08:39;8.50;99.90
23411;DHT22;11878;51.774;7.220;2023-03-14T10:11:43;8.20;99.90
23411;DHT22;11878;51.774;7.220;2023-03-14T10:14:52;9.20;99.90
23411;DHT22;11878;51.774;7.220;2023-03-14T10:17:55;9.70;99.90
23411;DHT22;11878;51.774;7.220;2023-03-14T10:21:20;8.30;99.90
23411;DHT22;11878;51.774;7.220;2023-03-14T10:24:28;8.80;99.90
23411;DHT22;11878;51.774;7.220;2023-03-14T10:27:33;9.60;99.90
23411;DHT22;11878;51.774;7.220;2023-03-14T10:33:42;9.20;99.90
23411;DHT22;11878;51.774;7.220;2023-03-14T10:36:44;7.90;99.90
23411;DHT22;11878;51.774;7.220;2023-03-14T10:39:48;8.60;99.90
23411;DHT22;11878;51.774;7.220;2023-03-14T10:42:58;8.40;99.90
23411;DHT22;11878;51.774;7.220;2023-03-14T10:46:15;7.70;99.90
23411;DHT22;11878;51.774;7.220;2023-03-14T10:49:37;7.20;99.90
23411;DHT22;11878;51.774;7.220;2023-03-14T10:52:47;7.30;99.90
23411;DHT22;11878;51.774;7.220;2023-03-14T10:56:03;8.40;99.90
23411;DHT22;11878;51.774;7.220;2023-03-14T10:59:12;7.30;99.90
23411;DHT22;11878;51.774;7.220;2023-03-14T11:05:57;7.00;99.90
23411;DHT22;11878;51.774;7.220;2023-03-14T11:09:15;7.30;99.90
23411;DHT22;11878;51.774;7.220;2023-03-14T11:19:27;7.50;99.90
23411;DHT22;11878;51.774;7.220;2023-03-14T11:26:16;7.40;99.90
23411;DHT22;11878;51.774;7.220;2023-03-14T11:32:48;7.60;99.90
23411;DHT22;11878;51.774;7.220;2023-03-14T11:39:46;7.30;99.90
23411;DHT22;11878;51.774;7.220;2023-03-14T11:43:06;7.10;99.90
23411;DHT22;11878;51.774;7.220;2023-03-14T11:46:27;7.40;99.90
23411;DHT22;11878;51.774;7.220;2023-03-14T11:49:42;7.30;99.90
23411;DHT22;11878;51.774;7.220;2023-03-14T11:53:16;8.80;99.90
23411;DHT22;11878;51.774;7.220;2023-03-14T11:56:29;7.40;99.90
23411;DHT22;11878;51.774;7.220;2023-03-14T12:03:19;7.50;99.90
23411;DHT22;11878;51.774;7.220;2023-03-14T12:06:31;7.90;99.90
23411;DHT22;11878;51.774;7.220;2023-03-14T12:09:40;8.50;99.90
23411;DHT22;11878;51.774;7.220;2023-03-14T12:12:42;8.30;99.90
23411;DHT22;11878;51.774;7.220;2023-03-14T12:18:51;8.80;99.90
23411;DHT22;11878;51.774;7.220;2023-03-14T12:22:13;8.70;99.90
23411;DHT22;11878;51.774;7.220;2023-03-14T12:25:24;8.50;99.90
23411;DHT22;11878;51.774;7.220;2023-03-14T12:28:31;9.00;99.90
23411;DHT22;11878;51.774;7.220;2023-03-14T12:32:08;8.80;99.90
23411;DHT22;11878;51.774;7.220;2023-03-14T12:35:40;8.10;99.90
23411;DHT22;11878;51.774;7.220;2023-03-14T12:39:46;6.80;99.90
23411;DHT22;11878;51.774;7.220;2023-03-14T12:46:29;7.20;99.90
23411;DHT22;11878;51.774;7.220;2023-03-14T12:49:32;7.80;99.90
23411;DHT22;11878;51.774;7.220;2023-03-14T12:53:02;8.30;99.90
23411;DHT22;11878;51.774;7.220;2023-03-14T13:02:41;8.00;99.90
23411;DHT22;11878;51.774;7.220;2023-03-14T13:05:59;8.10;99.90
23411;DHT22;11878;51.774;7.220;2023-03-14T13:13:15;7.80;99.90
23411;DHT22;11878;51.774;7.220;2023-03-14T13:16:20;8.20;99.90
23411;DHT22;11878;51.774;7.220;2023-03-14T13:19:31;9.30;99.90
23411;DHT22;11878;51.774;7.220;2023-03-14T13:22:36;8.10;99.90
23411;DHT22;11878;51.774;7.220;2023-03-14T13:25:40;9.60;99.90
23411;DHT22;11878;51.774;7.220;2023-03-14T13:28:42;8.60;99.90
23411;DHT22;11878;51.774;7.220;2023-03-14T13:31:45;10.00;99.90
23411;DHT22;11878;51.774;7.220;2023-03-14T13:34:48;8.90;99.90
23411;DHT22;11878;51.774;7.220;2023-03-14T13:37:56;9.20;99.90
23411;DHT22;11878;51.774;7.220;2023-03-14T13:41:11;9.00;99.90
23411;DHT22;11878;51.774;7.220;2023-03-14T13:44:30;9.00;99.90
23411;DHT22;11878;51.774;7.220;2023-03-14T13:47:33;8.10;99.90
23411;DHT22;11878;51.774;7.220;2023-03-14T13:50:51;9.50;99.90
23411;DHT22;11878;51.774;7.220;2023-03-14T13:53:55;10.40;99.90
23411;DHT22;11878;51.774;7.220;2023-03-14T13:57:04;11.50;95.90
23411;DHT22;11878;51.774;7.220;2023-03-14T14:00:16;12.30;91.90
23411;DHT22;11878;51.774;7.220;2023-03-14T14:03:22;14.10;80.90
23411;DHT22;11878;51.774;7.220;2023-03-14T14:06:31;13.50;77.10
23411;DHT22;11878;51.774;7.220;2023-03-14T14:09:42;14.70;74.10
23411;DHT22;11878;51.774;7.220;2023-03-14T14:12:59;13.60;85.20
23411;DHT22;11878;51.774;7.220;2023-03-14T14:16:03;12.90;75.00
23411;DHT22;11878;51.774;7.220;2023-03-14T14:19:05;11.60;74.30
23411;DHT22;11878;51.774;7.220;2023-03-14T14:22:10;13.30;71.20
23411;DHT22;11878;51.774;7.220;2023-03-14T14:25:14;10.50;74.90
23411;DHT22;11878;51.774;7.220;2023-03-14T14:28:35;11.10;79.40
23411;DHT22;11878;51.774;7.220;2023-03-14T14:31:39;12.40;64.40
23411;DHT22;11878;51.774;7.220;2023-03-14T14:34:55;14.10;71.90
23411;DHT22;11878;51.774;7.220;2023-03-14T14:38:01;14.20;58.50
23411;DHT22;11878;51.774;7.220;2023-03-14T14:41:04;14.90;66.40
23411;DHT22;11878;51.774;7.220;2023-03-14T14:44:13;13.80;57.80
23411;DHT22;11878;51.774;7.220;2023-03-14T14:47:24;12.30;59.70
23411;DHT22;11878;51.774;7.220;2023-03-14T14:50:36;10.80;62.20
23411;DHT22;11878;51.774;7.220;2023-03-14T14:53:40;11.10;64.40
23411;DHT22;11878;51.774;7.220;2023-03-14T14:57:12;13.10;64.60
23411;DHT22;11878;51.774;7.220;2023-03-14T15:00:25;11.60;67.10
23411;DHT22;11878;51.774;7.220;2023-03-14T15:03:29;11.20;76.60
23411;DHT22;11878;51.774;7.220;2023-03-14T15:06:34;12.90;70.10
23411;DHT22;11878;51.774;7.220;2023-03-14T15:09:47;12.80;59.00
23411;DHT22;11878;51.774;7.220;2023-03-14T15:12:51;14.20;55.30
23411;DHT22;11878;51.774;7.220;2023-03-14T15:15:56;15.70;51.70
23411;DHT22;11878;51.774;7.220;2023-03-14T15:19:01;15.60;49.50
23411;DHT22;11878;51.774;7.220;2023-03-14T15:22:15;15.10;49.10
23411;DHT22;11878;51.774;7.220;2023-03-14T15:25:17;13.00;51.90
23411;DHT22;11878;51.774;7.220;2023-03-14T15:28:39;11.70;56.50
23411;DHT22;11878;51.774;7.220;2023-03-14T15:31:42;12.00;57.70
23411;DHT22;11878;51.774;7.220;2023-03-14T15:34:49;12.90;56.30
23411;DHT22;11878;51.774;7.220;2023-03-14T15:37:51;13.60;56.50
23411;DHT22;11878;51.774;7.220;2023-03-14T15:40:53;12.10;54.60
23411;DHT22;11878;51.774;7.220;2023-03-14T15:43:55;12.20;52.00
23411;DHT22;11878;51.774;7.220;2023-03-14T15:46:57;11.40;51.80
23411;DHT22;11878;51.774;7.220;2023-03-14T15:49:59;12.60;53.60
23411;DHT22;11878;51.774;7.220;2023-03-14T15:53:01;11.50;59.10
23411;DHT22;11878;51.774;7.220;2023-03-14T15:56:05;11.80;56.70
23411;DHT22;11878;51.774;7.220;2023-03-14T15:59:07;10.50;57.70
23411;DHT22;11878;51.774;7.220;2023-03-14T16:02:09;9.80;57.20
23411;DHT22;11878;51.774;7.220;2023-03-14T16:05:12;10.80;60.80
23411;DHT22;11878;51.774;7.220;2023-03-14T16:08:14;11.20;55.10
23411;DHT22;11878;51.774;7.220;2023-03-14T16:11:16;10.70;56.70
23411;DHT22;11878;51.774;7.220;2023-03-14T16:14:22;9.50;58.50
23411;DHT22;11878;51.774;7.220;2023-03-14T16:17:25;9.10;57.50
23411;DHT22;11878;51.774;7.220;2023-03-14T16:20:29;8.80;62.30
23411;DHT22;11878;51.774;7.220;2023-03-14T16:23:46;8.60;65.80
23411;DHT22;11878;51.774;7.220;2023-03-14T16:26:54;8.60;60.40
23411;DHT22;11878;51.774;7.220;2023-03-14T16:29:57;8.80;65.20
23411;DHT22;11878;51.774;7.220;2023-03-14T16:33:00;9.30;64.10
23411;DHT22;11878;51.774;7.220;2023-03-14T16:36:05;8.00;70.60
23411;DHT22;11878;51.774;7.220;2023-03-14T16:39:09;8.30;66.70
23411;DHT22;11878;51.774;7.220;2023-03-14T16:42:11;8.60;71.00
23411;DHT22;11878;51.774;7.220;2023-03-14T16:45:13;8.30;70.10
23411;DHT22;11878;51.774;7.220;2023-03-14T16:48:14;8.00;73.10
23411;DHT22;11878;51.774;7.220;2023-03-14T16:51:16;9.00;73.40
23411;DHT22;11878;51.774;7.220;2023-03-14T16:54:18;8.90;71.50
23411;DHT22;11878;51.774;7.220;2023-03-14T16:57:27;8.50;79.90
23411;DHT22;11878;51.774;7.220;2023-03-14T17:00:37;7.60;77.60
23411;DHT22;11878;51.774;7.220;2023-03-14T17:03:42;9.00;82.10
23411;DHT22;11878;51.774;7.220;2023-03-14T17:06:44;8.50;83.30
23411;DHT22;11878;51.774;7.220;2023-03-14T17:09:47;7.20;82.10
23411;DHT22;11878;51.774;7.220;2023-03-14T17:12:49;7.40;81.40
23411;DHT22;11878;51.774;7.220;2023-03-14T17:15:55;8.10;81.70
23411;DHT22;11878;51.774;7.220;2023-03-14T17:18:57;7.30;79.70
23411;DHT22;11878;51.774;7.220;2023-03-14T17:21:59;7.40;79.30
23411;DHT22;11878;51.774;7.220;2023-03-14T17:25:21;7.30;85.20
23411;DHT22;11878;51.774;7.220;2023-03-14T17:28:25;8.60;82.90
23411;DHT22;11878;51.774;7.220;2023-03-14T17:31:27;7.30;80.60
23411;DHT22;11878;51.774;7.220;2023-03-14T17:34:29;7.00;82.60
23411;DHT22;11878;51.774;7.220;2023-03-14T17:37:31;7.20;83.10
23411;DHT22;11878;51.774;7.220;2023-03-14T17:40:37;8.30;81.70
23411;DHT22;11878;51.774;7.220;2023-03-14T17:43:39;8.40;81.70
23411;DHT22;11878;51.774;7.220;2023-03-14T17:46:41;7.00;79.30
23411;DHT22;11878;51.774;7.220;2023-03-14T17:49:44;8.60;86.40
23411;DHT22;11878;51.774;7.220;2023-03-14T17:52:47;8.40;86.10
23411;DHT22;11878;51.774;7.220;2023-03-14T17:55:49;6.90;84.10
23411;DHT22;11878;51.774;7.220;2023-03-14T17:58:51;6.80;86.40
23411;DHT22;11878;51.774;7.220;2023-03-14T18:01:54;6.70;84.60
23411;DHT22;11878;51.774;7.220;2023-03-14T18:04:56;6.60;79.10
23411;DHT22;11878;51.774;7.220;2023-03-14T18:07:59;6.70;81.50
23411;DHT22;11878;51.774;7.220;2023-03-14T18:11:01;7.90;83.80
23411;DHT22;11878;51.774;7.220;2023-03-14T18:14:03;6.60;81.00
23411;DHT22;11878;51.774;7.220;2023-03-14T18:17:08;6.60;84.80
23411;DHT22;11878;51.774;7.220;2023-03-14T18:20:13;7.60;83.90
23411;DHT22;11878;51.774;7.220;2023-03-14T18:23:16;6.50;81.10
23411;DHT22;11878;51.774;7.220;2023-03-14T18:26:18;7.10;82.70
23411;DHT22;11878;51.774;7.220;2023-03-14T18:29:20;7.70;83.50
23411;DHT22;11878;51.774;7.220;2023-03-14T18:32:22;6.80;81.10
23411;DHT22;11878;51.774;7.220;2023-03-14T18:35:24;7.20;82.00
23411;DHT22;11878;51.774;7.220;2023-03-14T18:38:27;6.60;79.70
23411;DHT22;11878;51.774;7.220;2023-03-14T18:41:29;6.40;81.00
23411;DHT22;11878;51.774;7.220;2023-03-14T18:44:31;6.40;78.70
23411;DHT22;11878;51.774;7.220;2023-03-14T18:47:33;6.30;82.70
23411;DHT22;11878;51.774;7.220;2023-03-14T18:50:37;6.10;87.30
23411;DHT22;11878;51.774;7.220;2023-03-14T18:53:39;6.10;88.00
23411;DHT22;11878;51.774;7.220;2023-03-14T18:56:42;6.10;83.30
23411;DHT22;11878;51.774;7.220;2023-03-14T18:59:44;6.10;84.90
23411;DHT22;11878;51.774;7.220;2023-03-14T19:02:46;6.10;85.30
23411;DHT22;11878;51.774;7.220;2023-03-14T19:05:48;6.20;85.00
23411;DHT22;11878;51.774;7.220;2023-03-14T19:08:50;6.00;84.80
23411;DHT22;11878;51.774;7.220;2023-03-14T19:11:52;5.90;91.10
23411;DHT22;11878;51.774;7.220;2023-03-14T19:14:54;6.70;90.90
23411;DHT22;11878;51.774;7.220;2023-03-14T19:17:56;5.80;90.40
23411;DHT22;11878;51.774;7.220;2023-03-14T19:24:02;6.80;92.50
23411;DHT22;11878;51.774;7.220;2023-03-14T19:27:05;5.40;93.70
23411;DHT22;11878;51.774;7.220;2023-03-14T19:30:07;6.70;93.50
23411;DHT22;11878;51.774;7.220;2023-03-14T19:33:13;5.50;94.20
23411;DHT22;11878;51.774;7.220;2023-03-14T19:36:27;5.60;94.40
23411;DHT22;11878;51.774;7.220;2023-03-14T19:39:29;5.50;95.10
23411;DHT22;11878;51.774;7.220;2023-03-14T19:42:32;6.10;96.70
23411;DHT22;11878;51.774;7.220;2023-03-14T19:45:34;5.40;95.10
23411;DHT22;11878;51.774;7.220;2023-03-14T19:48:37;6.90;95.70
23411;DHT22;11878;51.774;7.220;2023-03-14T19:51:40;5.40;95.00
23411;DHT22;11878;51.774;7.220;2023-03-14T19:54:42;5.40;95.90
23411;DHT22;11878;51.774;7.220;2023-03-14T19:57:44;5.30;96.30
23411;DHT22;11878;51.774;7.220;2023-03-14T20:00:47;5.30;97.40
23411;DHT22;11878;51.774;7.220;2023-03-14T20:03:49;5.20;95.90
23411;DHT22;11878;51.774;7.220;2023-03-14T20:06:52;5.30;96.50
23411;DHT22;11878;51.774;7.220;2023-03-14T20:09:54;5.20;97.80
23411;DHT22;11878;51.774;7.220;2023-03-14T20:12:56;5.20;97.10
23411;DHT22;11878;51.774;7.220;2023-03-14T20:16:04;6.10;97.60
23411;DHT22;11878;51.774;7.220;2023-03-14T20:19:11;4.90;98.50
23411;DHT22;11878;51.774;7.220;2023-03-14T20:22:13;4.80;99.20
23411;DHT22;11878;51.774;7.220;2023-03-14T20:25:17;4.80;98.90
23411;DHT22;11878;51.774;7.220;2023-03-14T20:28:23;4.70;99.90
23411;DHT22;11878;51.774;7.220;2023-03-14T20:31:25;4.70;99.90
23411;DHT22;11878;51.774;7.220;2023-03-14T20:34:27;4.70;99.90
23411;DHT22;11878;51.774;7.220;2023-03-14T20:37:32;4.60;99.90
23411;DHT22;11878;51.774;7.220;2023-03-14T20:40:34;4.70;99.90
23411;DHT22;11878;51.774;7.220;2023-03-14T20:43:38;4.70;99.90
23411;DHT22;11878;51.774;7.220;2023-03-14T20:46:41;4.60;99.90
23411;DHT22;11878;51.774;7.220;2023-03-14T20:49:43;4.50;99.90
23411;DHT22;11878;51.774;7.220;2023-03-14T20:52:45;4.60;99.90
23411;DHT22;11878;51.774;7.220;2023-03-14T20:55:47;4.60;99.90
23411;DHT22;11878;51.774;7.220;2023-03-14T20:58:50;4.60;99.90
23411;DHT22;11878;51.774;7.220;2023-03-14T21:01:51;4.40;99.90
23411;DHT22;11878;51.774;7.220;2023-03-14T21:04:56;4.30;99.90
23411;DHT22;11878;51.774;7.220;2023-03-14T21:07:58;4.40;99.90
23411;DHT22;11878;51.774;7.220;2023-03-14T21:11:01;4.40;99.90
23411;DHT22;11878;51.774;7.220;2023-03-14T21:14:04;4.20;99.90
23411;DHT22;11878;51.774;7.220;2023-03-14T21:17:05;4.30;99.90
23411;DHT22;11878;51.774;7.220;2023-03-14T21:20:09;4.40;99.90
23411;DHT22;11878;51.774;7.220;2023-03-14T21:23:13;4.20;99.90
23411;DHT22;11878;51.774;7.220;2023-03-14T21:26:18;4.30;99.90